createdAt,value
2022-09-07T00:00:31.125Z,18.466667
2022-09-07T00:05:33.819Z,18.533333
2022-09-07T00:10:16.179Z,19.600000
2022-09-07T00:15:18.584Z,20.333333
2022-09-07T00:20:22.553Z,19.928571
2022-09-07T00:25:25.316Z,19.800000
2022-09-07T00:30:28.248Z,20.933333
2022-09-07T00:35:31.044Z,21.266667
2022-09-07T00:40:33.651Z,21.533333
2022-09-07T00:45:15.962Z,22.266667
2022-09-07T00:50:19.522Z,23.133333
2022-09-07T00:55:21.980Z,23.933333
2022-09-07T01:00:24.680Z,24.285714
2022-09-07T01:05:28.432Z,25.533333
2022-09-07T01:10:31.157Z,26.600000
2022-09-07T01:15:34.474Z,27.400000
2022-09-07T01:20:17.246Z,29.133333
2022-09-07T01:25:19.841Z,30.133333
2022-09-07T01:30:22.359Z,31.000000
2022-09-07T01:35:25.601Z,32.133333
2022-09-07T01:40:28.064Z,32.866667
2022-09-07T01:45:31.193Z,33.733333
2022-09-07T01:50:34.886Z,34.466667
2022-09-07T01:55:16.536Z,35.000000
2022-09-07T02:00:20.074Z,35.800000
2022-09-07T02:05:23.503Z,34.928571
2022-09-07T02:10:25.988Z,33.466667
2022-09-07T02:15:28.667Z,32.333333
2022-09-07T02:20:31.657Z,30.800000
2022-09-07T02:25:33.987Z,30.800000
2022-09-07T02:30:16.336Z,30.200000
2022-09-07T02:35:18.752Z,26.933333
2022-09-07T02:40:21.198Z,24.200000
2022-09-07T02:45:23.879Z,25.642857
2022-09-07T02:50:26.793Z,25.333333
2022-09-07T02:55:29.468Z,24.266667
2022-09-07T03:00:31.600Z,27.866667
2022-09-07T03:05:35.285Z,32.066667
2022-09-07T03:10:18.608Z,33.333333
2022-09-07T03:15:22.894Z,32.714286
2022-09-07T03:20:25.653Z,33.200000
2022-09-07T03:25:28.155Z,33.000000
2022-09-07T03:30:30.693Z,31.200000
2022-09-07T03:35:33.109Z,31.066667
2022-09-07T03:40:36.340Z,33.533333
2022-09-07T03:45:18.671Z,33.533333
2022-09-07T03:50:21.501Z,34.866667
2022-09-07T03:55:24.366Z,35.000000
2022-09-07T04:00:27.572Z,34.733333
2022-09-07T04:05:30.099Z,34.933333
2022-09-07T04:10:32.653Z,33.600000
2022-09-07T04:15:35.332Z,33.733333
2022-09-07T04:20:18.457Z,34.866667
2022-09-07T04:25:22.162Z,34.466667
2022-09-07T04:30:26.326Z,35.071429
2022-09-07T04:35:29.856Z,36.066667
2022-09-07T04:40:33.513Z,36.400000
2022-09-07T04:45:36.253Z,36.066667
2022-09-07T04:50:19.289Z,34.400000
2022-09-07T04:55:23.158Z,34.285714
2022-09-07T05:00:27.323Z,31.666667
2022-09-07T05:05:30.734Z,30.400000
2022-09-07T05:10:33.954Z,31.733333
2022-09-07T05:15:16.546Z,32.400000
2022-09-07T05:20:20.380Z,31.933333
2022-09-07T05:25:22.274Z,30.466667
2022-09-07T05:31:21.815Z,28.928571
2022-09-07T05:35:27.399Z,27.933333
2022-09-07T05:40:29.999Z,27.600000
2022-09-07T05:45:32.330Z,26.733333
2022-09-07T05:50:35.105Z,30.400000
2022-09-07T05:55:29.378Z,37.333333
2022-09-07T06:00:20.340Z,36.133333
2022-09-07T06:05:23.101Z,34.428571
2022-09-07T08:11:35.884Z,54.400000
2022-09-07T08:15:27.379Z,51.066667
2022-09-07T08:20:29.817Z,46.333333
2022-09-07T08:25:32.371Z,44.066667
2022-09-07T08:30:35.108Z,43.733333
2022-09-07T08:35:17.267Z,43.666667
2022-09-07T08:40:19.909Z,47.066667
2022-09-07T08:45:22.323Z,51.071429
2022-09-07T08:50:25.166Z,55.000000
2022-09-07T08:55:27.596Z,55.800000
2022-09-07T09:00:30.083Z,55.466667
2022-09-07T09:05:33.075Z,56.333333
2022-09-07T09:10:35.268Z,57.000000
2022-09-07T09:15:17.684Z,57.866667
2022-09-07T09:20:20.442Z,58.466667
2022-09-07T09:25:22.961Z,59.428571
2022-09-07T09:30:25.748Z,59.733333
2022-09-07T09:35:28.764Z,58.000000
2022-09-07T09:40:31.540Z,55.733333
2022-09-07T09:46:12.260Z,56.266667
2022-09-07T09:52:29.329Z,56.200000
2022-09-07T09:55:33.731Z,57.666667
2022-09-07T10:00:29.287Z,55.333333
2022-09-07T10:05:25.203Z,51.571429
2022-09-07T10:10:27.529Z,52.000000
2022-09-07T10:15:30.879Z,46.866667
2022-09-07T10:20:33.479Z,45.466667
2022-09-07T10:25:35.862Z,50.266667
2022-09-07T10:30:18.166Z,48.800000
2022-09-07T10:35:20.906Z,52.933333
2022-09-07T10:40:23.363Z,56.500000
2022-09-07T10:45:25.879Z,57.600000
2022-09-07T10:50:28.478Z,58.333333
2022-09-07T10:55:31.008Z,57.866667
2022-09-07T11:00:33.308Z,58.466667
2022-09-07T11:05:15.948Z,58.000000
2022-09-07T11:10:18.525Z,56.600000
2022-09-07T11:15:20.962Z,55.600000
2022-09-07T11:20:23.704Z,54.642857
2022-09-07T11:25:29.974Z,52.000000
2022-09-07T11:30:28.894Z,51.400000
2022-09-07T11:35:31.406Z,50.933333
2022-09-07T11:40:33.945Z,49.933333
2022-09-07T11:45:16.424Z,47.000000
2022-09-07T11:50:19.146Z,45.933333
2022-09-07T11:55:21.731Z,52.733333
2022-09-07T12:00:24.298Z,58.714286
2022-09-07T12:05:26.690Z,62.600000
2022-09-07T12:10:29.461Z,66.066667
2022-09-07T12:15:32.129Z,66.200000
2022-09-07T12:20:34.756Z,63.333333
2022-09-07T12:25:16.870Z,62.066667
2022-09-07T12:30:19.802Z,63.400000
2022-09-07T12:35:22.116Z,66.800000
2022-09-07T12:40:24.705Z,67.785714
2022-09-07T12:45:27.595Z,68.533333
2022-09-07T12:50:29.970Z,69.000000
2022-09-07T12:55:33.011Z,69.066667
2022-09-07T13:00:35.141Z,70.000000
2022-09-07T13:05:17.454Z,68.200000
2022-09-07T13:10:20.219Z,67.133333
2022-09-07T13:15:24.299Z,67.928571
2022-09-07T13:20:25.355Z,69.133333
2022-09-07T13:25:28.021Z,69.600000
2022-09-07T13:30:30.730Z,69.933333
2022-09-07T13:35:33.138Z,70.000000
2022-09-07T13:40:35.378Z,70.533333
2022-09-07T13:45:18.001Z,70.133333
2022-09-07T13:50:20.825Z,69.600000
2022-09-07T13:55:25.836Z,69.000000
2022-09-07T14:00:27.696Z,68.133333
2022-09-07T14:05:41.523Z,68.066667
2022-09-07T14:10:32.231Z,67.666667
2022-09-07T14:15:35.252Z,64.466667
2022-09-07T14:20:17.666Z,62.800000
2022-09-07T14:25:20.677Z,63.266667
2022-09-07T14:30:23.203Z,62.214286
2022-09-07T14:35:25.958Z,59.200000
2022-09-07T14:40:28.113Z,60.133333
2022-09-07T14:45:31.082Z,59.200000
2022-09-07T14:50:33.647Z,60.533333
2022-09-07T14:55:36.248Z,61.133333
2022-09-07T15:00:18.868Z,61.733333
2022-09-07T15:05:21.859Z,62.133333
2022-09-07T15:10:24.426Z,59.428571
2022-09-07T15:15:27.333Z,58.333333
2022-09-07T15:20:30.365Z,58.933333
2022-09-07T15:25:34.517Z,57.866667
2022-09-07T15:30:20.943Z,51.800000
2022-09-07T15:35:23.699Z,51.071429
2022-09-07T15:40:26.814Z,54.466667
2022-09-07T15:45:29.206Z,55.533333
2022-09-07T15:50:31.829Z,53.933333
2022-09-07T15:55:37.223Z,50.333333
2022-09-07T16:00:17.232Z,53.066667
2022-09-07T16:05:20.213Z,49.600000
2022-09-07T16:10:22.440Z,48.785714
2022-09-07T16:15:27.038Z,45.933333
2022-09-07T16:20:32.098Z,44.333333
2022-09-07T16:25:30.273Z,42.533333
2022-09-07T16:30:32.691Z,41.933333
2022-09-07T16:35:35.347Z,37.933333
2022-09-07T16:40:18.387Z,38.666667
2022-09-07T16:46:03.951Z,35.933333
2022-09-07T16:50:23.557Z,32.642857
2022-09-07T16:55:25.591Z,31.466667
2022-09-07T17:00:32.342Z,31.200000
2022-09-07T17:05:30.803Z,31.000000
2022-09-07T17:10:33.391Z,28.733333
2022-09-07T17:15:35.938Z,29.133333
2022-09-07T17:20:19.313Z,28.933333
2022-09-07T17:25:20.915Z,26.000000
2022-09-07T17:30:24.743Z,26.857143
2022-09-07T17:35:26.034Z,27.466667
2022-09-07T17:40:28.628Z,25.866667
2022-09-07T17:45:31.401Z,27.933333
2022-09-07T17:50:33.888Z,26.466667
2022-09-07T17:55:16.062Z,25.866667
2022-09-07T18:00:18.804Z,26.800000
2022-09-07T18:05:21.342Z,26.733333
2022-09-07T18:10:24.182Z,26.785714
2022-09-07T18:15:26.314Z,26.933333
2022-09-07T18:20:28.987Z,26.066667
2022-09-07T18:25:31.504Z,24.800000
2022-09-07T18:30:34.045Z,24.600000
2022-09-07T18:35:16.240Z,23.733333
2022-09-07T18:40:21.472Z,23.333333
2022-09-07T18:45:28.829Z,23.400000
2022-09-07T18:50:24.255Z,23.000000
2022-09-07T18:55:26.718Z,23.000000
2022-09-07T19:00:29.518Z,23.000000
2022-09-07T19:06:07.790Z,22.533333
2022-09-07T19:10:34.361Z,24.133333
2022-09-07T19:15:16.755Z,22.066667
2022-09-07T19:20:19.319Z,21.333333
2022-09-07T19:25:22.267Z,20.733333
2022-09-07T19:30:24.758Z,20.785714
2022-09-07T19:35:27.222Z,19.466667
2022-09-07T19:40:29.810Z,20.400000
2022-09-07T19:45:32.269Z,21.266667
2022-09-07T19:50:35.115Z,21.066667
2022-09-07T19:55:17.418Z,18.866667
2022-09-07T20:00:19.919Z,19.800000
2022-09-07T20:05:22.815Z,20.000000
2022-09-07T20:10:25.404Z,21.600000
2022-09-07T20:15:28.458Z,21.333333
2022-09-07T20:20:31.507Z,21.600000
2022-09-07T20:25:34.190Z,20.466667
2022-09-07T20:30:17.028Z,19.733333
2022-09-07T20:35:19.850Z,18.466667
2022-09-07T20:40:22.601Z,18.428571
2022-09-07T20:45:29.756Z,19.533333
2022-09-07T20:50:28.280Z,20.000000
2022-09-07T20:55:31.395Z,18.400000
2022-09-07T21:00:34.221Z,18.133333
2022-09-07T21:05:16.714Z,17.800000
2022-09-07T21:10:19.375Z,18.533333
2022-09-07T21:15:22.021Z,16.800000
2022-09-07T21:20:24.796Z,17.428571
2022-09-07T21:25:27.888Z,16.866667
2022-09-07T21:30:31.185Z,16.200000
2022-09-07T21:35:34.196Z,16.000000
2022-09-07T21:40:16.890Z,16.266667
2022-09-07T21:45:19.592Z,16.333333
2022-09-07T21:50:22.155Z,16.285714
2022-09-07T21:55:24.966Z,16.733333
2022-09-07T22:00:28.426Z,16.200000
2022-09-07T22:05:30.584Z,16.333333
2022-09-07T22:10:33.986Z,16.466667
2022-09-07T22:15:17.113Z,15.666667
2022-09-07T22:20:19.711Z,15.466667
2022-09-07T22:25:22.087Z,14.600000
2022-09-07T22:30:24.760Z,14.857143
2022-09-07T22:35:27.659Z,15.533333
2022-09-07T22:40:30.894Z,16.266667
2022-09-07T22:45:33.727Z,15.866667
2022-09-07T22:50:16.676Z,14.733333
2022-09-07T22:55:19.535Z,14.666667
2022-09-07T23:00:22.145Z,15.200000
2022-09-07T23:05:25.035Z,14.142857
2022-09-07T23:10:27.555Z,15.600000
2022-09-07T23:15:30.972Z,15.666667
2022-09-07T23:20:33.750Z,14.933333
2022-09-07T23:25:16.751Z,15.533333
2022-09-07T23:30:19.672Z,15.000000
2022-09-07T23:35:22.188Z,15.400000
2022-09-07T23:40:24.740Z,15.142857
2022-09-07T23:45:27.278Z,14.333333
2022-09-07T23:50:30.076Z,15.000000
2022-09-07T23:55:32.488Z,14.400000
